createdAt,value
2023-03-19T00:00:26.940Z,87.43
2023-03-19T00:01:26.932Z,87.63
2023-03-19T00:02:26.984Z,86.98
2023-03-19T00:03:26.965Z,86.77
2023-03-19T00:04:26.905Z,87.14
2023-03-19T00:05:26.899Z,86.77
2023-03-19T00:06:26.892Z,86.88
2023-03-19T00:07:26.897Z,86.98
2023-03-19T00:08:26.861Z,86.77
2023-03-19T00:09:26.874Z,86.32
2023-03-19T00:10:26.841Z,86.63
2023-03-19T00:11:26.837Z,86.22
2023-03-19T00:12:26.853Z,85.81
2023-03-19T00:13:26.823Z,85.81
2023-03-19T00:14:26.807Z,85.50
2023-03-19T00:15:26.812Z,85.71
2023-03-19T00:16:26.805Z,85.20
2023-03-19T00:17:26.808Z,85.61
2023-03-19T00:18:26.767Z,84.95
2023-03-19T00:19:26.767Z,85.36
2023-03-19T00:20:26.746Z,85.47
2023-03-19T00:21:27.169Z,85.06
2023-03-19T00:22:26.766Z,84.95
2023-03-19T00:23:26.735Z,84.95
2023-03-19T00:24:26.726Z,84.95
2023-03-19T00:25:26.703Z,84.95
2023-03-19T00:26:26.710Z,84.95
2023-03-19T00:27:26.699Z,85.26
2023-03-19T00:28:26.682Z,85.26
2023-03-19T00:29:26.663Z,85.16
2023-03-19T00:30:26.685Z,85.36
2023-03-19T00:31:26.639Z,84.30
2023-03-19T00:32:26.643Z,84.34
2023-03-19T00:33:26.636Z,84.30
2023-03-19T00:34:26.609Z,84.20
2023-03-19T00:35:26.632Z,84.20
2023-03-19T00:36:26.598Z,84.09
2023-03-19T00:37:26.592Z,83.59
2023-03-19T00:38:26.599Z,83.79
2023-03-19T00:39:26.577Z,84.09
2023-03-19T00:40:26.544Z,83.69
2023-03-19T00:41:26.556Z,83.69
2023-03-19T00:42:26.567Z,83.89
2023-03-19T00:43:26.516Z,83.69
2023-03-19T00:44:26.521Z,83.89
2023-03-19T00:45:26.523Z,83.69
2023-03-19T00:46:26.636Z,83.79
2023-03-19T00:47:26.508Z,83.38
2023-03-19T00:48:26.473Z,83.48
2023-03-19T00:49:26.471Z,83.79
2023-03-19T00:50:26.463Z,83.48
2023-03-19T00:51:26.448Z,83.79
2023-03-19T00:52:26.468Z,83.89
2023-03-19T00:53:26.421Z,83.59
2023-03-19T00:54:26.422Z,83.48
2023-03-19T00:55:26.404Z,83.48
2023-03-19T00:56:26.393Z,83.48
2023-03-19T00:57:26.445Z,83.79
2023-03-19T00:58:26.395Z,83.89
2023-03-19T00:59:26.362Z,83.28
2023-03-19T01:00:26.348Z,83.28
2023-03-19T01:01:26.383Z,83.59
2023-03-19T01:02:26.351Z,83.48
2023-03-19T01:03:26.349Z,83.89
2023-03-19T01:04:26.388Z,83.28
2023-03-19T01:05:26.300Z,83.69
2023-03-19T01:06:26.291Z,83.38
2023-03-19T01:07:26.307Z,83.28
2023-03-19T01:08:26.275Z,83.28
2023-03-19T01:09:26.285Z,83.59
2023-03-19T01:10:26.248Z,83.69
2023-03-19T01:11:26.246Z,83.79
2023-03-19T01:12:26.234Z,83.79
2023-03-19T01:13:26.220Z,83.79
2023-03-19T01:14:26.225Z,83.69
2023-03-19T01:15:26.193Z,83.59
2023-03-19T01:16:26.191Z,83.62
2023-03-19T01:17:26.183Z,83.93
2023-03-19T01:18:26.173Z,84.03
2023-03-19T01:19:26.191Z,84.03
2023-03-19T01:20:26.163Z,84.03
2023-03-19T01:21:26.137Z,84.24
2023-03-19T01:22:26.142Z,84.44
2023-03-19T01:23:27.120Z,85.16
2023-03-19T01:24:26.107Z,85.06
2023-03-19T01:25:26.107Z,85.06
2023-03-19T01:26:26.154Z,85.06
2023-03-19T01:27:26.101Z,84.79
2023-03-19T01:28:26.083Z,85.10
2023-03-19T01:29:26.073Z,85.10
2023-03-19T01:30:26.045Z,84.99
2023-03-19T01:31:26.084Z,85.10
2023-03-19T01:32:26.052Z,85.40
2023-03-19T01:33:26.016Z,85.40
2023-03-19T01:34:26.014Z,85.20
2023-03-19T01:35:25.992Z,85.61
2023-03-19T01:36:25.991Z,85.61
2023-03-19T01:37:26.029Z,85.50
2023-03-19T01:38:25.967Z,85.71
2023-03-19T01:39:25.955Z,85.71
2023-03-19T01:40:25.952Z,85.57
2023-03-19T01:41:25.936Z,85.40
2023-03-19T01:42:25.943Z,85.81
2023-03-19T01:43:25.928Z,85.71
2023-03-19T01:44:25.918Z,85.61
2023-03-19T01:45:25.904Z,85.50
2023-03-19T01:46:25.940Z,85.50
2023-03-19T01:47:25.899Z,85.71
2023-03-19T01:48:25.889Z,85.40
2023-03-19T01:49:25.868Z,85.61
2023-03-19T01:50:25.914Z,85.91
2023-03-19T01:51:25.829Z,85.61
2023-03-19T01:52:26.861Z,85.61
2023-03-19T01:53:25.830Z,85.50
2023-03-19T01:54:25.834Z,85.71
2023-03-19T01:55:25.815Z,85.50
2023-03-19T01:56:25.784Z,85.67
2023-03-19T01:57:25.800Z,85.91
2023-03-19T01:58:26.109Z,85.67
2023-03-19T01:59:26.777Z,85.67
2023-03-19T02:00:25.752Z,85.50
2023-03-19T02:01:25.786Z,85.61
2023-03-19T02:02:25.783Z,85.40
2023-03-19T02:03:25.737Z,85.91
2023-03-19T02:04:25.820Z,86.12
2023-03-19T02:05:25.772Z,85.91
2023-03-19T02:06:25.689Z,86.12
2023-03-19T02:07:25.706Z,86.02
2023-03-19T02:08:25.674Z,86.02
2023-03-19T02:09:25.655Z,86.32
2023-03-19T02:10:25.655Z,86.12
2023-03-19T02:11:25.632Z,86.02
2023-03-19T02:12:25.647Z,86.36
2023-03-19T02:13:25.646Z,86.73
2023-03-19T02:14:25.618Z,87.24
2023-03-19T02:15:25.608Z,87.18
2023-03-19T02:16:25.692Z,87.49
2023-03-19T02:17:25.605Z,87.59
2023-03-19T02:18:25.591Z,87.70
2023-03-19T02:19:25.573Z,87.49
2023-03-19T02:20:25.540Z,87.38
2023-03-19T02:21:25.536Z,87.55
2023-03-19T02:22:25.551Z,87.59
2023-03-19T02:23:25.523Z,87.79
2023-03-19T02:24:25.519Z,87.49
2023-03-19T02:25:25.503Z,87.38
2023-03-19T02:26:25.488Z,86.88
2023-03-19T02:27:25.490Z,86.77
2023-03-19T02:28:25.500Z,87.08
2023-03-19T02:29:25.598Z,86.77
2023-03-19T02:30:25.451Z,87.08
2023-03-19T02:31:25.452Z,86.77
2023-03-19T02:32:25.448Z,86.83
2023-03-19T02:33:25.413Z,86.98
2023-03-19T02:34:25.410Z,87.08
2023-03-19T02:35:25.387Z,86.77
2023-03-19T02:36:25.379Z,87.08
2023-03-19T02:37:25.419Z,86.77
2023-03-19T02:38:25.374Z,86.98
2023-03-19T02:39:25.361Z,86.88
2023-03-19T02:40:25.346Z,86.88
2023-03-19T02:41:25.343Z,86.77
2023-03-19T02:42:25.379Z,86.88
2023-03-19T02:43:25.327Z,86.88
2023-03-19T02:44:25.302Z,87.12
2023-03-19T02:45:25.308Z,86.98
2023-03-19T02:46:25.304Z,87.18
2023-03-19T02:47:25.277Z,86.77
2023-03-19T02:48:25.296Z,86.88
2023-03-19T02:49:25.312Z,86.88
2023-03-19T02:50:25.255Z,86.88
2023-03-19T02:51:25.270Z,86.77
2023-03-19T02:52:25.236Z,86.77
2023-03-19T02:53:25.239Z,86.77
2023-03-19T02:54:25.209Z,86.88
2023-03-19T02:55:25.205Z,86.67
2023-03-19T02:56:25.187Z,86.88
2023-03-19T02:57:25.181Z,86.36
2023-03-19T02:58:25.192Z,86.26
2023-03-19T02:59:25.164Z,86.57
2023-03-19T03:00:25.154Z,86.05
2023-03-19T03:01:25.141Z,85.96
2023-03-19T03:02:25.234Z,86.05
2023-03-19T03:03:25.144Z,86.16
2023-03-19T03:04:25.113Z,86.05
2023-03-19T03:05:25.110Z,86.16
2023-03-19T03:06:25.099Z,86.26
2023-03-19T03:07:25.090Z,86.16
2023-03-19T03:08:25.100Z,86.20
2023-03-19T03:09:25.061Z,86.26
2023-03-19T03:10:25.051Z,86.36
2023-03-19T03:11:25.044Z,86.46
2023-03-19T03:12:25.039Z,86.10
2023-03-19T03:13:25.039Z,86.16
2023-03-19T03:14:25.014Z,86.20
2023-03-19T03:15:24.999Z,86.20
2023-03-19T03:16:24.996Z,86.40
2023-03-19T03:17:24.995Z,86.51
2023-03-19T03:18:24.994Z,86.85
2023-03-19T03:19:24.966Z,87.02
2023-03-19T03:20:24.964Z,86.81
2023-03-19T03:21:24.940Z,86.91
2023-03-19T03:22:24.932Z,86.81
2023-03-19T03:23:24.954Z,87.02
2023-03-19T03:24:24.914Z,87.02
2023-03-19T03:25:24.934Z,87.06
2023-03-19T03:26:24.895Z,86.81
2023-03-19T03:30:36.260Z,87.67
2023-03-19T03:31:36.270Z,87.73
2023-03-19T03:32:36.279Z,87.73
2023-03-19T03:33:36.252Z,87.77
2023-03-19T03:34:37.345Z,87.06
2023-03-19T03:35:37.385Z,88.04
2023-03-19T03:36:37.316Z,87.88
2023-03-19T03:37:37.313Z,87.43
2023-03-19T03:38:37.334Z,87.73
2023-03-19T03:39:37.294Z,87.73
2023-03-19T03:40:37.276Z,87.88
2023-03-19T03:41:37.268Z,87.94
2023-03-19T03:42:37.396Z,87.43
2023-03-19T03:43:37.287Z,87.43
2023-03-19T03:44:37.242Z,87.63
2023-03-19T03:45:37.266Z,87.53
2023-03-19T03:46:37.220Z,87.73
2023-03-19T03:47:37.202Z,87.12
2023-03-19T03:48:37.249Z,87.53
2023-03-19T03:49:37.203Z,87.08
2023-03-19T03:50:37.198Z,86.91
2023-03-19T03:51:37.230Z,87.18
2023-03-19T03:52:37.183Z,87.08
2023-03-19T03:53:37.168Z,87.12
2023-03-19T03:54:37.183Z,86.98
2023-03-19T03:55:37.150Z,86.81
2023-03-19T03:56:37.157Z,86.91
2023-03-19T03:57:37.153Z,87.53
2023-03-19T03:58:37.118Z,87.53
2023-03-19T03:59:37.112Z,86.81
2023-03-19T04:00:37.100Z,87.53
2023-03-19T04:01:37.152Z,87.43
2023-03-19T04:02:37.125Z,87.63
2023-03-19T04:03:37.137Z,87.63
2023-03-19T04:04:37.075Z,87.63
2023-03-19T04:05:37.055Z,88.04
2023-03-19T04:06:37.038Z,87.63
2023-03-19T04:07:38.018Z,87.84
2023-03-19T04:08:38.044Z,87.32
2023-03-19T04:09:37.000Z,87.43
2023-03-19T04:10:36.996Z,88.35
2023-03-19T04:11:36.983Z,88.14
2023-03-19T04:12:36.988Z,88.56
2023-03-19T04:13:36.981Z,88.20
2023-03-19T04:14:36.951Z,88.51
2023-03-19T04:15:36.945Z,88.41
2023-03-19T04:16:36.987Z,88.10
2023-03-19T04:17:36.925Z,88.31
2023-03-19T04:18:36.936Z,88.51
2023-03-19T04:19:36.914Z,88.65
2023-03-19T04:20:36.897Z,88.56
2023-03-19T04:21:36.881Z,88.86
2023-03-19T04:22:36.881Z,89.21
2023-03-19T04:23:36.887Z,89.31
2023-03-19T04:24:36.859Z,89.21
2023-03-19T04:25:36.854Z,90.03
2023-03-19T04:26:36.837Z,90.28
2023-03-19T04:27:36.825Z,89.97
2023-03-19T04:28:36.849Z,89.83
2023-03-19T04:29:36.814Z,90.07
2023-03-19T04:30:37.276Z,90.17
2023-03-19T04:31:36.780Z,89.45
2023-03-19T04:32:36.798Z,90.07
2023-03-19T04:33:36.813Z,89.87
2023-03-19T04:34:36.760Z,90.07
2023-03-19T04:35:36.766Z,90.17
2023-03-19T04:36:36.778Z,91.09
2023-03-19T04:37:36.743Z,90.89
2023-03-19T04:38:36.722Z,90.37
2023-03-19T04:39:36.708Z,90.37
2023-03-19T04:40:36.687Z,90.83
2023-03-19T04:41:36.709Z,91.14
2023-03-19T04:42:36.673Z,91.09
2023-03-19T04:43:36.657Z,91.14
2023-03-19T04:44:36.669Z,91.09
2023-03-19T04:45:36.648Z,91.20
2023-03-19T04:46:36.676Z,91.30
2023-03-19T04:47:36.623Z,91.91
2023-03-19T04:48:36.659Z,91.82
2023-03-19T04:49:36.631Z,92.63
2023-03-19T04:50:36.592Z,92.43
2023-03-19T04:51:36.584Z,91.71
2023-03-19T04:52:37.569Z,91.82
2023-03-19T04:53:36.580Z,91.91
2023-03-19T04:54:36.566Z,92.22
2023-03-19T04:55:36.547Z,92.02
2023-03-19T04:56:36.542Z,92.02
2023-03-19T04:57:36.547Z,91.71
2023-03-19T04:58:36.547Z,92.22
2023-03-19T04:59:36.522Z,91.61
2023-03-19T05:00:36.498Z,92.02
2023-03-19T05:01:36.520Z,91.91
2023-03-19T05:02:36.480Z,92.02
2023-03-19T05:03:36.530Z,91.71
2023-03-19T05:04:36.469Z,92.02
2023-03-19T05:05:36.442Z,91.61
2023-03-19T05:06:36.444Z,92.06
2023-03-19T05:07:36.430Z,92.02
2023-03-19T05:08:36.416Z,91.91
2023-03-19T05:09:36.410Z,92.02
2023-03-19T05:10:36.597Z,91.96
2023-03-19T05:11:36.406Z,91.86
2023-03-19T05:12:36.379Z,92.06
2023-03-19T05:13:36.428Z,91.96
2023-03-19T05:14:36.374Z,92.16
2023-03-19T05:15:36.387Z,92.27
2023-03-19T05:16:36.347Z,92.27
2023-03-19T05:17:36.329Z,92.06
2023-03-19T05:18:36.346Z,92.16
2023-03-19T05:19:36.308Z,92.27
2023-03-19T05:20:36.409Z,92.06
2023-03-19T05:21:36.272Z,92.02
2023-03-19T05:22:36.279Z,91.96
2023-03-19T05:23:36.281Z,91.91
2023-03-19T05:24:36.252Z,92.12
2023-03-19T05:25:36.244Z,92.22
2023-03-19T05:26:36.221Z,91.91
2023-03-19T05:27:36.222Z,91.50
2023-03-19T05:28:36.224Z,92.32
2023-03-19T05:29:36.201Z,92.43
2023-03-19T05:30:36.414Z,92.43
2023-03-19T05:31:36.183Z,91.61
2023-03-19T05:32:36.189Z,92.02
2023-03-19T05:33:36.175Z,91.40
2023-03-19T05:34:36.139Z,91.40
2023-03-19T05:35:36.206Z,91.56
2023-03-19T05:36:36.137Z,90.84
2023-03-19T05:37:37.141Z,90.89
2023-03-19T05:38:36.136Z,91.09
2023-03-19T05:39:36.102Z,90.99
2023-03-19T05:40:36.250Z,90.89
2023-03-19T05:41:36.073Z,91.20
2023-03-19T05:42:36.156Z,91.09
2023-03-19T05:43:36.093Z,91.20
2023-03-19T05:44:36.054Z,90.69
2023-03-19T05:45:36.038Z,91.30
2023-03-19T05:46:36.107Z,91.50
2023-03-19T05:47:36.018Z,91.20
2023-03-19T05:48:36.043Z,91.20
2023-03-19T05:49:36.002Z,90.79
2023-03-19T05:50:36.131Z,90.79
2023-03-19T05:51:35.992Z,90.48
2023-03-19T05:52:35.969Z,90.69
2023-03-19T05:53:35.989Z,90.58
2023-03-19T05:54:35.952Z,90.99
2023-03-19T05:55:35.945Z,90.79
2023-03-19T05:56:35.929Z,90.54
2023-03-19T05:57:35.918Z,90.84
2023-03-19T05:58:35.926Z,91.09
2023-03-19T05:59:35.904Z,91.20
2023-03-19T06:00:36.158Z,90.95
2023-03-19T06:01:35.955Z,91.46
2023-03-19T06:02:35.898Z,91.05
2023-03-19T06:03:35.926Z,91.05
2023-03-19T06:04:35.854Z,91.05
2023-03-19T06:05:35.847Z,90.95
2023-03-19T06:06:35.827Z,91.05
2023-03-19T06:07:35.852Z,90.95
2023-03-19T06:08:35.860Z,90.84
2023-03-19T06:09:35.839Z,90.84
2023-03-19T06:10:36.136Z,91.36
2023-03-19T06:11:35.788Z,91.36
2023-03-19T06:12:35.776Z,91.36
2023-03-19T06:13:35.903Z,91.77
2023-03-19T06:14:35.759Z,92.59
2023-03-19T06:15:35.999Z,92.38
2023-03-19T06:16:35.736Z,91.67
2023-03-19T06:17:35.722Z,91.91
2023-03-19T06:18:35.740Z,91.82
2023-03-19T06:19:35.697Z,92.02
2023-03-19T06:20:36.150Z,92.02
2023-03-19T06:21:35.679Z,92.12
2023-03-19T06:22:35.689Z,92.12
2023-03-19T06:23:35.671Z,92.43
2023-03-19T06:24:35.657Z,92.53
2023-03-19T06:25:35.661Z,92.38
2023-03-19T06:26:35.630Z,92.02
2023-03-19T06:27:35.663Z,92.02
2023-03-19T06:28:35.621Z,91.97
2023-03-19T06:29:35.632Z,92.38
2023-03-19T06:30:35.948Z,92.63
2023-03-19T06:31:35.662Z,92.38
2023-03-19T06:32:35.651Z,92.18
2023-03-19T06:33:35.582Z,92.53
2023-03-19T06:34:35.553Z,92.63
2023-03-19T06:35:35.664Z,92.74
2023-03-19T06:36:35.545Z,92.83
2023-03-19T06:37:35.560Z,92.53
2023-03-19T06:38:35.572Z,92.74
2023-03-19T06:39:35.525Z,92.49
2023-03-19T06:40:35.875Z,92.79
2023-03-19T06:41:35.485Z,92.83
2023-03-19T06:42:35.521Z,92.79
2023-03-19T06:43:35.486Z,92.18
2023-03-19T06:44:35.469Z,92.43
2023-03-19T06:45:35.465Z,92.22
2023-03-19T06:46:35.445Z,92.02
2023-03-19T06:47:35.421Z,92.32
2023-03-19T06:48:35.439Z,92.28
2023-03-19T06:49:35.411Z,92.28
2023-03-19T06:50:35.617Z,91.97
2023-03-19T06:51:35.395Z,92.18
2023-03-19T06:52:35.387Z,92.18
2023-03-19T06:53:35.404Z,91.97
2023-03-19T06:54:37.898Z,91.73
2023-03-19T06:55:35.353Z,91.87
2023-03-19T06:56:35.352Z,92.03
2023-03-19T06:57:35.345Z,92.28
2023-03-19T06:58:35.337Z,92.55
2023-03-19T06:59:35.314Z,91.52
2023-03-19T07:00:35.658Z,91.63
2023-03-19T07:01:35.289Z,91.17
2023-03-19T07:02:35.285Z,91.01
2023-03-19T07:03:35.294Z,90.81
2023-03-19T07:04:35.322Z,90.86
2023-03-19T07:05:35.248Z,91.07
2023-03-19T07:06:35.234Z,91.22
2023-03-19T07:07:35.274Z,90.86
2023-03-19T07:08:35.230Z,90.86
2023-03-19T07:09:35.205Z,90.66
2023-03-19T07:10:35.479Z,90.56
2023-03-19T07:11:36.019Z,90.56
2023-03-19T07:12:36.208Z,90.41
2023-03-19T07:13:35.212Z,90.92
2023-03-19T07:14:35.156Z,90.00
2023-03-19T07:15:35.143Z,89.80
2023-03-19T07:16:35.152Z,89.97
2023-03-19T07:17:35.137Z,89.86
2023-03-19T07:18:35.130Z,89.31
2023-03-19T07:19:35.134Z,89.20
2023-03-19T07:20:35.468Z,89.61
2023-03-19T07:21:35.119Z,88.85
2023-03-19T07:22:35.071Z,89.06
2023-03-19T07:23:35.073Z,88.71
2023-03-19T07:24:35.081Z,87.90
2023-03-19T07:25:35.051Z,88.17
2023-03-19T07:26:35.051Z,87.85
2023-03-19T07:27:35.033Z,87.45
2023-03-19T07:28:35.021Z,87.20
2023-03-19T07:29:35.022Z,86.39
2023-03-19T07:30:35.401Z,85.27
2023-03-19T07:31:35.031Z,85.47
2023-03-19T07:32:34.996Z,85.06
2023-03-19T07:33:34.960Z,84.25
2023-03-19T07:34:34.980Z,83.90
2023-03-19T07:35:34.984Z,83.39
2023-03-19T07:36:34.936Z,83.49
2023-03-19T07:37:34.926Z,83.59
2023-03-19T07:38:34.913Z,82.68
2023-03-19T07:39:34.929Z,82.78
2023-03-19T07:40:35.178Z,82.27
2023-03-19T07:41:34.886Z,82.47
2023-03-19T07:42:34.874Z,82.27
2023-03-19T07:43:34.888Z,82.27
2023-03-19T07:44:34.879Z,82.37
2023-03-19T07:45:34.866Z,82.84
2023-03-19T07:46:34.839Z,82.54
2023-03-19T07:47:34.853Z,82.03
2023-03-19T07:48:34.807Z,81.62
2023-03-19T07:49:34.825Z,81.31
2023-03-19T07:50:35.137Z,81.76
2023-03-19T07:52:07.435Z,81.62
2023-03-19T07:52:35.821Z,80.80
2023-03-19T07:53:35.271Z,81.01
2023-03-19T07:54:35.355Z,81.52
2023-03-19T07:55:36.641Z,81.41
2023-03-19T07:56:34.730Z,81.41
2023-03-19T07:57:34.721Z,81.72
2023-03-19T07:58:34.704Z,80.80
2023-03-19T07:59:34.731Z,80.91
2023-03-19T08:00:35.031Z,81.07
2023-03-19T08:01:34.678Z,81.38
2023-03-19T08:02:34.716Z,81.44
2023-03-19T08:03:34.654Z,80.32
2023-03-19T08:04:34.725Z,80.63
2023-03-19T08:05:34.687Z,80.32
2023-03-19T08:06:34.641Z,79.57
2023-03-19T08:07:34.618Z,79.16
2023-03-19T08:08:34.605Z,79.37
2023-03-19T08:09:34.616Z,78.66
2023-03-19T08:10:36.645Z,78.55
2023-03-19T08:11:35.579Z,78.05
2023-03-19T08:12:34.580Z,77.94
2023-03-19T08:13:34.550Z,77.23
2023-03-19T08:14:34.555Z,76.92
2023-03-19T08:15:34.520Z,76.72
2023-03-19T08:16:34.553Z,76.89
2023-03-19T08:17:34.504Z,76.07
2023-03-19T08:18:34.490Z,75.87
2023-03-19T08:19:34.502Z,75.67
2023-03-19T08:20:34.704Z,75.26
2023-03-19T08:21:34.457Z,75.12
2023-03-19T08:22:34.459Z,75.33
2023-03-19T08:23:34.442Z,74.82
2023-03-19T08:24:34.463Z,74.52
2023-03-19T08:25:34.430Z,75.02
2023-03-19T08:26:34.413Z,75.43
2023-03-19T08:27:34.411Z,75.49
2023-03-19T08:28:34.394Z,75.80
2023-03-19T08:29:34.405Z,74.99
2023-03-19T08:30:34.772Z,75.36
2023-03-19T08:31:34.367Z,75.16
2023-03-19T08:32:34.407Z,75.46
2023-03-19T08:33:34.357Z,75.26
2023-03-19T08:34:34.362Z,74.75
2023-03-19T08:35:34.348Z,74.85
2023-03-19T08:36:34.306Z,74.58
2023-03-19T08:37:35.313Z,74.95
2023-03-19T08:38:34.292Z,75.05
2023-03-19T08:39:34.313Z,75.16
2023-03-19T08:40:34.493Z,74.92
2023-03-19T08:41:34.281Z,74.75
2023-03-19T08:42:34.255Z,74.65
2023-03-19T08:43:34.244Z,74.44
2023-03-19T08:44:34.253Z,74.44
2023-03-19T08:45:34.227Z,74.01
2023-03-19T08:46:34.434Z,73.50
2023-03-19T08:47:34.208Z,72.78
2023-03-19T08:48:34.197Z,73.22
2023-03-19T08:49:34.206Z,74.04
2023-03-19T08:50:34.392Z,74.34
2023-03-19T08:51:34.172Z,74.44
2023-03-19T08:52:34.153Z,74.14
2023-03-19T08:53:34.145Z,73.50
2023-03-19T08:54:34.153Z,73.70
2023-03-19T08:55:34.134Z,73.33
2023-03-19T08:56:34.121Z,73.19
2023-03-19T08:57:34.103Z,73.22
2023-03-19T08:58:34.090Z,73.02
2023-03-19T08:59:34.441Z,72.82
2023-03-19T09:00:35.350Z,72.62
2023-03-19T09:01:34.061Z,72.92
2023-03-19T09:02:34.058Z,72.82
2023-03-19T09:03:34.038Z,73.02
2023-03-19T09:04:34.095Z,71.60
2023-03-19T09:05:34.083Z,71.70
2023-03-19T09:06:34.015Z,71.30
2023-03-19T09:07:33.997Z,71.67
2023-03-19T09:08:33.992Z,71.36
2023-03-19T09:09:34.006Z,71.36
2023-03-19T09:10:34.174Z,71.77
2023-03-19T09:11:33.991Z,72.48
2023-03-19T09:12:33.955Z,71.97
2023-03-19T09:13:33.957Z,70.83
2023-03-19T09:14:34.021Z,71.53
2023-03-19T09:15:34.114Z,70.83
2023-03-19T09:16:33.910Z,71.09
2023-03-19T09:17:33.900Z,70.32
2023-03-19T09:18:33.885Z,69.51
2023-03-19T09:19:33.911Z,69.51
2023-03-19T09:20:33.864Z,69.00
2023-03-19T09:21:33.862Z,68.70
2023-03-19T09:22:33.859Z,68.59
2023-03-19T09:23:33.852Z,68.90
2023-03-19T09:24:33.826Z,68.90
2023-03-19T09:25:34.083Z,68.39
2023-03-19T09:26:33.828Z,68.49
2023-03-19T09:27:33.797Z,68.59
2023-03-19T09:28:33.800Z,69.00
2023-03-19T09:29:33.771Z,69.30
2023-03-19T09:30:33.763Z,69.20
2023-03-19T09:31:33.862Z,69.60
2023-03-19T09:32:33.772Z,70.01
2023-03-19T09:33:33.776Z,69.60
2023-03-19T09:34:33.747Z,69.57
2023-03-19T09:35:33.942Z,69.37
2023-03-19T09:36:33.706Z,68.66
2023-03-19T09:37:33.700Z,68.52
2023-03-19T09:38:33.686Z,68.49
2023-03-19T09:39:33.697Z,68.40
2023-03-19T09:40:33.666Z,68.09
2023-03-19T09:41:33.649Z,67.38
2023-03-19T09:42:33.639Z,67.89
2023-03-19T09:43:33.634Z,67.38
2023-03-19T09:44:33.637Z,66.88
2023-03-19T09:45:33.836Z,66.77
2023-03-19T09:46:33.650Z,67.28
2023-03-19T09:47:33.608Z,67.38
2023-03-19T09:48:33.578Z,67.45
2023-03-19T09:49:33.602Z,67.25
2023-03-19T09:50:33.565Z,67.55
2023-03-19T09:51:33.548Z,66.94
2023-03-19T09:52:33.538Z,66.57
2023-03-19T09:53:33.529Z,66.37
2023-03-19T09:54:33.550Z,66.27
2023-03-19T09:55:33.865Z,65.96
2023-03-19T09:56:33.507Z,65.53
2023-03-19T09:57:33.498Z,65.56
2023-03-19T09:58:33.538Z,65.02
2023-03-19T09:59:33.483Z,65.12
2023-03-19T10:00:33.467Z,65.53
2023-03-19T10:01:33.536Z,65.53
2023-03-19T10:02:33.448Z,65.02
2023-03-19T10:03:33.514Z,65.02
2023-03-19T10:04:33.511Z,66.03
2023-03-19T10:05:33.676Z,65.19
2023-03-19T10:06:33.411Z,65.53
2023-03-19T10:07:33.393Z,65.09
2023-03-19T10:08:33.389Z,65.39
2023-03-19T10:09:33.399Z,65.29
2023-03-19T10:10:33.363Z,64.96
2023-03-19T10:11:33.356Z,65.26
2023-03-19T10:12:33.346Z,65.67
2023-03-19T10:13:33.334Z,65.53
2023-03-19T10:14:33.320Z,65.00
2023-03-19T10:15:33.749Z,64.09
2023-03-19T10:16:33.327Z,63.58
2023-03-19T10:17:33.286Z,63.78
2023-03-19T10:18:33.284Z,63.76
2023-03-19T10:19:33.363Z,62.95
2023-03-19T10:20:33.282Z,61.96
2023-03-19T10:21:33.253Z,61.87
2023-03-19T10:22:33.242Z,61.76
2023-03-19T10:23:33.248Z,61.66
2023-03-19T10:24:33.265Z,62.16
2023-03-19T10:25:33.499Z,62.77
2023-03-19T10:26:33.203Z,63.05
2023-03-19T10:27:33.197Z,63.76
2023-03-19T10:28:33.209Z,63.55
2023-03-19T10:29:33.186Z,61.60
2023-03-19T10:30:33.182Z,61.60
2023-03-19T10:31:33.171Z,61.17
2023-03-19T10:32:33.166Z,60.66
2023-03-19T10:33:33.137Z,61.30
2023-03-19T10:34:33.162Z,61.07
2023-03-19T10:35:33.582Z,61.44
2023-03-19T10:36:33.113Z,60.87
2023-03-19T10:37:33.097Z,61.47
2023-03-19T10:38:33.157Z,60.66
2023-03-19T10:39:33.085Z,60.33
2023-03-19T10:40:33.092Z,59.22
2023-03-19T10:41:33.095Z,60.06
2023-03-19T10:42:34.116Z,60.19
2023-03-19T10:43:33.045Z,59.96
2023-03-19T10:44:33.022Z,59.45
2023-03-19T10:45:33.484Z,60.06
2023-03-19T10:46:33.007Z,60.36
2023-03-19T10:47:33.009Z,59.45
2023-03-19T10:48:32.985Z,59.38
2023-03-19T10:49:32.979Z,59.76
2023-03-19T10:50:32.996Z,59.76
2023-03-19T10:51:32.956Z,58.34
2023-03-19T10:52:32.947Z,59.76
2023-03-19T10:53:32.944Z,58.65
2023-03-19T10:54:32.936Z,58.14
2023-03-19T10:55:33.346Z,59.63
2023-03-19T10:56:32.917Z,58.85
2023-03-19T10:57:32.919Z,58.54
2023-03-19T10:58:32.896Z,58.58
2023-03-19T10:59:32.887Z,59.48
2023-03-19T11:00:32.903Z,59.58
2023-03-19T11:01:32.955Z,59.99
2023-03-19T11:02:32.851Z,60.39
2023-03-19T11:03:32.886Z,58.95
2023-03-19T11:04:32.827Z,59.25
2023-03-19T11:05:33.777Z,59.35
2023-03-19T11:06:32.811Z,59.18
2023-03-19T11:07:32.798Z,58.95
2023-03-19T11:08:35.809Z,59.22
2023-03-19T11:09:33.787Z,59.02
2023-03-19T11:10:32.794Z,58.34
2023-03-19T11:11:32.768Z,58.45
2023-03-19T11:12:32.742Z,58.65
2023-03-19T11:13:32.741Z,58.98
2023-03-19T11:14:32.728Z,58.95
2023-03-19T11:15:33.057Z,58.17
2023-03-19T11:16:32.736Z,58.87
2023-03-19T11:17:32.694Z,59.08
2023-03-19T11:18:32.691Z,60.09
2023-03-19T11:19:32.738Z,61.07
2023-03-19T11:20:32.706Z,60.77
2023-03-19T11:21:32.655Z,60.60
2023-03-19T11:22:32.647Z,60.89
2023-03-19T11:23:32.644Z,59.78
2023-03-19T11:24:32.623Z,59.89
2023-03-19T11:25:32.974Z,60.39
2023-03-19T11:26:32.601Z,59.89
2023-03-19T11:27:32.588Z,60.80
2023-03-19T11:28:32.584Z,61.10
2023-03-19T11:29:32.568Z,61.10
2023-03-19T11:30:32.580Z,59.28
2023-03-19T11:31:32.579Z,60.09
2023-03-19T11:32:32.712Z,59.99
2023-03-19T11:33:32.546Z,59.69
2023-03-19T11:34:32.522Z,58.91
2023-03-19T11:35:33.214Z,59.18
2023-03-19T11:36:32.497Z,60.57
2023-03-19T11:37:32.513Z,60.87
2023-03-19T11:38:32.479Z,58.72
2023-03-19T11:39:32.492Z,59.12
2023-03-19T11:40:32.483Z,60.58
2023-03-19T11:41:32.451Z,58.67
2023-03-19T11:42:32.443Z,58.94
2023-03-19T11:43:32.456Z,58.74
2023-03-19T11:44:32.422Z,58.44
2023-03-19T11:45:32.709Z,57.81
2023-03-19T11:46:32.451Z,55.91
2023-03-19T11:47:32.417Z,56.95
2023-03-19T11:48:32.382Z,58.26
2023-03-19T11:49:32.376Z,58.23
2023-03-19T11:50:32.407Z,57.23
2023-03-19T11:51:32.418Z,55.71
2023-03-19T11:52:32.350Z,56.85
2023-03-19T11:53:32.333Z,55.62
2023-03-19T11:54:32.326Z,56.52
2023-03-19T11:55:32.825Z,55.39
2023-03-19T11:56:32.341Z,54.99
2023-03-19T11:57:32.306Z,54.86
2023-03-19T11:58:32.312Z,55.46
2023-03-19T11:59:32.270Z,55.06
2023-03-19T12:00:32.288Z,55.06
2023-03-19T12:01:32.256Z,55.16
2023-03-19T12:02:32.358Z,56.40
2023-03-19T12:03:32.268Z,56.22
2023-03-19T12:04:32.231Z,56.24
2023-03-19T12:05:32.660Z,56.85
2023-03-19T12:06:32.213Z,56.98
2023-03-19T12:07:32.214Z,56.77
2023-03-19T12:08:32.181Z,56.81
2023-03-19T12:09:32.181Z,57.31
2023-03-19T12:10:32.377Z,57.41
2023-03-19T12:11:32.173Z,56.81
2023-03-19T12:12:32.164Z,57.31
2023-03-19T12:13:32.139Z,57.01
2023-03-19T12:14:32.164Z,56.83
2023-03-19T12:15:32.408Z,58.34
2023-03-19T12:16:32.119Z,58.62
2023-03-19T12:17:32.114Z,57.91
2023-03-19T12:18:32.107Z,57.94
2023-03-19T12:19:32.088Z,58.45
2023-03-19T12:20:32.099Z,58.01
2023-03-19T12:21:32.081Z,58.62
2023-03-19T12:22:32.065Z,58.52
2023-03-19T12:23:34.077Z,58.12
2023-03-19T12:24:32.028Z,57.31
2023-03-19T12:25:32.082Z,57.61
2023-03-19T12:26:32.049Z,57.74
2023-03-19T12:27:32.018Z,58.45
2023-03-19T12:28:32.007Z,57.26
2023-03-19T12:29:32.021Z,57.16
2023-03-19T12:30:32.000Z,58.17
2023-03-19T12:31:32.029Z,59.00
2023-03-19T12:32:31.977Z,61.66
2023-03-19T12:33:31.942Z,63.34
2023-03-19T12:34:31.936Z,67.65
2023-03-19T12:35:32.081Z,71.16
2023-03-19T12:36:31.908Z,68.21
2023-03-19T12:37:31.914Z,74.55
2023-03-19T12:38:31.900Z,77.30
2023-03-19T12:39:31.887Z,75.98
2023-03-19T12:40:31.898Z,76.49
2023-03-19T12:41:31.863Z,75.16
2023-03-19T12:42:31.851Z,76.39
2023-03-19T12:43:31.841Z,75.37
2023-03-19T12:44:31.828Z,76.08
2023-03-19T12:45:31.884Z,77.47
2023-03-19T12:46:31.891Z,78.76
2023-03-19T12:47:31.835Z,74.25
2023-03-19T12:48:31.785Z,74.45
2023-03-19T12:49:31.774Z,75.13
2023-03-19T12:50:31.900Z,76.59
2023-03-19T12:51:31.769Z,77.47
2023-03-19T12:52:32.107Z,78.66
2023-03-19T12:53:31.760Z,79.02
2023-03-19T12:54:31.738Z,79.60
2023-03-19T12:55:32.050Z,80.82